To NAV CANADA Home Page Login to a new session Search on AWWS site Disclaimer Vers la page française équivalente Tips FAQ What's new on the site To the Forecasts and Observations / NOTAM section To "File a Flight Plan" website Publications and other links Update of the User's profile FIC Telephone Numbers My Weather Data Folder Route Weather Data Regional Weather Data Local Weather Data To the Forecasts and Observations / NOTAM section
Request Generated 04/24/2019 at 16:49:19 UTC . Weather information available at that time is displayed.

METAR/TAF

NORWAY HOUSE/MB    (show WxCam)

METAR CYNE 241600Z AUTO 26007KT 210V320 9SM CLR 11/06 A2955 RMK SLP017 DENSITY ALT 800FT=
METAR CYNE 241500Z AUTO 23003KT 210V300 9SM FEW055 07/06 A2957 RMK SLP023=
SPECI CYNE 241458Z AUTO VRB02KT 9SM FEW055 SCT083 07/06 A2957 RMK SLP023=
SPECI CYNE 241428Z AUTO VRB02KT 9SM -RA SCT038 BKN047 OVC060 06/05 A2957 RMK SLP025=
SPECI CYNE 241424Z AUTO VRB02KT 9SM SCT042 BKN060 OVC069 06/05 A2958 RMK SLP027=
METAR CYNE 241400Z AUTO 00000KT 6SM -RA BR SCT043 OVC050 05/04 A2956 RMK SLP023=

TAF CYNE 241239Z 2413/2501 22005KT P6SM BKN060 TEMPO 2413/2501 P6SM
-SHRA
BECMG 2416/2418 27010KT
RMK FCST BASED ON AUTO OBS. NXT FCST BY 241900Z=
Your time UTC time
Weather data provided by Environment Canada and NAV CANADA